createdAt,value
2023-01-17T00:02:36.105Z,64.43
2023-01-17T00:07:56.725Z,65.28
2023-01-17T00:13:03.767Z,63.97
2023-01-17T00:18:06.259Z,53.60
2023-01-17T00:23:32.697Z,53.70
2023-01-17T00:28:40.091Z,47.95
2023-01-17T00:33:42.413Z,50.38
2023-01-17T00:38:44.411Z,42.15
2023-01-17T00:44:04.993Z,50.00
2023-01-17T00:49:26.360Z,43.28
2023-01-17T00:54:46.950Z,42.25
2023-01-17T01:00:07.767Z,41.10
2023-01-17T01:05:29.638Z,53.53
2023-01-17T01:10:51.334Z,52.58
2023-01-17T01:16:12.168Z,48.20
2023-01-17T01:21:32.917Z,42.30
2023-01-17T01:32:13.849Z,33.42
2023-01-17T01:37:15.965Z,40.63
2023-01-17T01:42:18.360Z,41.58
2023-01-17T01:47:29.346Z,42.40
2023-01-17T01:52:33.989Z,40.67
2023-01-17T01:57:42.705Z,43.88
2023-01-17T02:02:47.887Z,42.13
2023-01-17T02:08:17.624Z,36.97
2023-01-17T02:13:21.507Z,36.15
2023-01-17T02:19:00.434Z,35.22
2023-01-17T02:24:40.061Z,37.65
2023-01-17T02:30:11.208Z,39.97
2023-01-17T02:40:26.931Z,31.83
2023-01-17T02:45:29.530Z,36.95
2023-01-17T02:50:56.058Z,38.63
2023-01-17T02:56:08.704Z,33.83
2023-01-17T03:01:38.437Z,35.88
2023-01-17T03:06:47.555Z,34.15
2023-01-17T03:11:49.899Z,34.67
2023-01-17T03:16:52.307Z,33.22
2023-01-17T03:21:54.417Z,32.05
2023-01-17T03:26:56.644Z,32.03
2023-01-17T03:31:58.842Z,36.60
2023-01-17T03:37:00.916Z,36.60
2023-01-17T03:42:02.967Z,32.60
2023-01-17T03:47:05.072Z,32.00
2023-01-17T03:52:07.938Z,30.08
2023-01-17T03:57:10.148Z,31.17
2023-01-17T04:02:12.355Z,38.33
2023-01-17T04:07:14.574Z,34.13
2023-01-17T04:12:16.740Z,44.05
2023-01-17T04:17:20.530Z,33.10
2023-01-17T04:22:22.798Z,29.75
2023-01-17T04:27:24.935Z,33.80
2023-01-17T04:32:27.019Z,33.08
2023-01-17T04:37:29.068Z,33.05
2023-01-17T04:42:31.217Z,34.45
2023-01-17T04:47:36.191Z,38.22
2023-01-17T04:52:38.400Z,32.38
2023-01-17T04:57:40.455Z,33.58
2023-01-17T05:02:42.593Z,40.58
2023-01-17T05:07:44.822Z,49.45
2023-01-17T05:12:54.463Z,39.70
2023-01-17T05:17:56.759Z,34.95
2023-01-17T05:22:59.113Z,38.35
2023-01-17T05:28:01.808Z,37.15
2023-01-17T05:33:04.060Z,44.50
2023-01-17T05:38:06.245Z,34.88
2023-01-17T05:43:09.005Z,36.42
2023-01-17T05:48:11.157Z,40.03
2023-01-17T05:53:16.293Z,42.53
2023-01-17T05:58:21.567Z,45.38
2023-01-17T06:03:23.712Z,53.95
2023-01-17T06:08:25.807Z,53.92
2023-01-17T06:13:27.902Z,53.42
2023-01-17T06:18:31.233Z,50.88
2023-01-17T06:23:33.547Z,36.88
2023-01-17T06:28:36.023Z,55.13
2023-01-17T06:33:38.279Z,67.57
2023-01-17T06:38:40.343Z,42.25
2023-01-17T06:43:42.461Z,36.47
2023-01-17T06:48:44.718Z,49.50
2023-01-17T06:53:48.603Z,49.15
2023-01-17T06:58:51.906Z,49.90
2023-01-17T07:03:54.683Z,63.15
2023-01-17T07:08:57.062Z,49.42
2023-01-17T07:13:59.168Z,52.85
2023-01-17T07:19:01.256Z,45.60
2023-01-17T07:24:03.577Z,41.80
2023-01-17T07:29:06.110Z,46.47
2023-01-17T07:34:08.529Z,51.00
2023-01-17T07:39:10.740Z,41.05
2023-01-17T07:44:13.673Z,36.80
2023-01-17T07:49:15.827Z,47.08
2023-01-17T07:54:17.891Z,48.95
2023-01-17T07:59:20.116Z,47.65
2023-01-17T08:04:25.639Z,45.80
2023-01-17T08:09:28.063Z,47.10
2023-01-17T08:14:30.576Z,43.75
2023-01-17T08:19:32.753Z,43.38
2023-01-17T08:24:35.264Z,43.50
2023-01-17T08:29:37.544Z,34.95
2023-01-17T08:34:39.659Z,34.33
2023-01-17T08:39:41.763Z,35.70
2023-01-17T08:44:44.425Z,36.08
2023-01-17T08:49:46.684Z,26.48
2023-01-17T08:54:48.807Z,30.65
2023-01-17T08:59:50.927Z,30.00
2023-01-17T09:04:53.960Z,30.45
2023-01-17T09:09:56.098Z,36.38
2023-01-17T09:14:58.286Z,30.88
2023-01-17T09:20:00.559Z,25.80
2023-01-17T09:25:02.672Z,29.55
2023-01-17T09:30:05.589Z,26.00
2023-01-17T09:35:09.130Z,25.58
2023-01-17T09:40:23.218Z,27.92
2023-01-17T09:45:28.051Z,29.85
2023-01-17T09:50:33.204Z,30.55
2023-01-17T09:55:40.876Z,24.60
2023-01-17T10:00:51.563Z,31.42
2023-01-17T10:06:11.681Z,29.65
2023-01-17T10:11:39.181Z,31.02
2023-01-17T10:16:50.208Z,41.22
2023-01-17T10:22:02.662Z,28.60
2023-01-17T10:27:26.383Z,32.53
2023-01-17T10:32:32.988Z,39.53
2023-01-17T10:37:44.400Z,32.80
2023-01-17T10:42:54.495Z,51.63
2023-01-17T10:48:35.121Z,44.75
2023-01-17T10:53:57.350Z,52.22
2023-01-17T10:59:38.489Z,41.80
2023-01-17T11:04:45.339Z,49.78
2023-01-17T11:09:53.666Z,40.33
2023-01-17T11:20:43.549Z,42.38
2023-01-17T11:25:58.201Z,34.58
2023-01-17T11:31:24.289Z,33.15
2023-01-17T11:36:30.367Z,34.03
2023-01-17T11:41:35.247Z,31.65
2023-01-17T11:46:38.478Z,33.67
2023-01-17T11:51:43.611Z,30.95
2023-01-17T11:56:46.724Z,69.13
2023-01-17T12:02:16.559Z,84.50
2023-01-17T12:07:46.525Z,83.97
2023-01-17T12:13:19.159Z,78.28
2023-01-17T12:18:37.256Z,46.38
2023-01-17T12:24:02.610Z,60.72
2023-01-17T12:29:07.625Z,53.53
2023-01-17T12:34:24.886Z,39.28
2023-01-17T12:39:36.548Z,35.92
2023-01-17T12:45:06.163Z,35.85
2023-01-17T12:50:38.683Z,31.73
2023-01-17T12:55:46.710Z,32.53
2023-01-17T13:00:58.098Z,42.20
2023-01-17T13:06:03.157Z,33.40
2023-01-17T13:11:18.498Z,25.75
2023-01-17T13:16:30.705Z,22.25
2023-01-17T13:21:35.690Z,18.00
2023-01-17T13:26:50.007Z,13.48
2023-01-17T13:32:15.216Z,19.55
2023-01-17T13:37:19.868Z,14.85
2023-01-17T13:42:45.213Z,18.73
2023-01-17T13:47:47.447Z,17.10
2023-01-17T13:52:49.585Z,15.05
2023-01-17T13:57:51.713Z,16.33
2023-01-17T14:02:55.622Z,23.20
2023-01-17T14:08:12.759Z,17.50
2023-01-17T14:13:37.809Z,17.80
2023-01-17T14:18:43.389Z,25.73
2023-01-17T14:23:50.155Z,17.75
2023-01-17T14:28:53.140Z,14.63
2023-01-17T14:33:55.299Z,19.05
2023-01-17T14:38:57.535Z,9.93
2023-01-17T14:44:01.341Z,7.70
2023-01-17T14:49:06.590Z,5.85
2023-01-17T14:54:22.790Z,9.40
2023-01-17T14:59:25.111Z,10.43
2023-01-17T15:04:40.034Z,11.82
2023-01-17T15:09:45.017Z,7.13
2023-01-17T15:14:47.233Z,10.23
2023-01-17T15:19:54.284Z,11.25
2023-01-17T15:24:57.622Z,19.48
2023-01-17T15:30:02.735Z,15.35
2023-01-17T15:35:08.318Z,12.60
2023-01-17T15:40:20.624Z,13.05
2023-01-17T15:45:33.230Z,11.90
2023-01-17T15:50:36.864Z,12.02
2023-01-17T15:55:40.405Z,13.38
2023-01-17T16:00:44.548Z,14.55
2023-01-17T16:05:47.419Z,20.52
2023-01-17T16:10:55.468Z,27.08
2023-01-17T16:16:32.814Z,25.42
2023-01-17T16:21:35.089Z,14.25
2023-01-17T16:26:37.293Z,15.32
2023-01-17T16:31:39.564Z,18.52
2023-01-17T16:36:41.883Z,17.77
2023-01-17T16:41:44.859Z,19.05
2023-01-17T16:46:47.435Z,13.23
2023-01-17T16:51:50.366Z,16.50
2023-01-17T16:56:53.031Z,16.33
2023-01-17T17:01:55.242Z,14.10
2023-01-17T17:06:57.351Z,14.38
2023-01-17T17:11:59.464Z,13.93
2023-01-17T17:17:01.790Z,16.88
2023-01-17T17:22:06.875Z,17.17
2023-01-17T17:27:09.133Z,10.30
2023-01-17T17:32:11.917Z,12.75
2023-01-17T17:37:16.341Z,12.05
2023-01-17T17:42:20.406Z,13.32
2023-01-17T17:47:24.304Z,10.02
2023-01-17T17:52:26.474Z,12.48
2023-01-17T17:57:28.612Z,15.52
2023-01-17T18:02:31.840Z,13.30
2023-01-17T18:07:34.530Z,9.90
2023-01-17T18:12:36.674Z,14.57
2023-01-17T18:17:38.910Z,10.32
2023-01-17T18:22:42.264Z,10.32
2023-01-17T18:27:45.299Z,14.73
2023-01-17T18:32:50.240Z,14.35
2023-01-17T18:37:52.589Z,11.73
2023-01-17T18:42:55.129Z,11.35
2023-01-17T18:47:57.815Z,14.55
2023-01-17T18:53:00.206Z,17.88
2023-01-17T18:58:02.695Z,18.88
2023-01-17T19:03:06.847Z,25.52
2023-01-17T19:08:10.329Z,19.73
2023-01-17T19:13:12.950Z,26.67
2023-01-17T19:18:15.024Z,18.95
2023-01-17T19:23:17.611Z,13.13
2023-01-17T19:28:19.815Z,9.50
2023-01-17T19:33:22.134Z,10.35
2023-01-17T19:38:24.235Z,11.35
2023-01-17T19:43:26.400Z,7.82
2023-01-17T19:48:28.961Z,11.57
2023-01-17T19:53:31.066Z,10.02
2023-01-17T19:58:34.024Z,9.48
2023-01-17T20:03:38.059Z,6.88
2023-01-17T20:08:40.928Z,11.48
2023-01-17T20:13:43.071Z,6.90
2023-01-17T20:18:45.982Z,11.10
2023-01-17T20:23:50.365Z,7.57
2023-01-17T20:28:53.591Z,9.40
2023-01-17T20:33:56.659Z,5.43
2023-01-17T20:38:59.423Z,8.63
2023-01-17T20:44:02.802Z,9.20
2023-01-17T20:49:07.965Z,11.75
2023-01-17T20:54:14.817Z,11.73
2023-01-17T20:59:19.905Z,13.07
2023-01-17T21:04:26.180Z,6.50
2023-01-17T21:09:28.521Z,7.03
2023-01-17T21:14:30.857Z,13.00
2023-01-17T21:19:32.953Z,11.00
2023-01-17T21:24:35.050Z,12.38
2023-01-17T21:29:37.191Z,18.58
2023-01-17T21:34:39.275Z,10.90
2023-01-17T21:39:41.452Z,10.60
2023-01-17T21:44:45.632Z,12.82
2023-01-17T21:49:48.412Z,14.55
2023-01-17T21:55:09.070Z,8.80
2023-01-17T22:00:16.953Z,11.27
2023-01-17T22:05:19.153Z,15.45
2023-01-17T22:10:21.391Z,12.15
2023-01-17T22:15:23.831Z,15.23
2023-01-17T22:20:26.092Z,16.15
2023-01-17T22:25:28.451Z,8.70
2023-01-17T22:30:30.697Z,12.35
2023-01-17T22:35:32.977Z,16.10
2023-01-17T22:40:38.596Z,13.23
2023-01-17T22:45:40.861Z,13.18
2023-01-17T22:50:43.356Z,8.60
2023-01-17T22:55:45.527Z,11.63
2023-01-17T23:00:47.688Z,6.78
2023-01-17T23:05:49.771Z,6.97
2023-01-17T23:11:10.289Z,10.82
2023-01-17T23:16:30.922Z,16.80
2023-01-17T23:21:52.887Z,5.57
2023-01-17T23:27:13.355Z,9.80
2023-01-17T23:32:15.479Z,8.85
2023-01-17T23:37:17.667Z,6.85
2023-01-17T23:42:38.375Z,7.30
2023-01-17T23:47:40.483Z,9.80
2023-01-17T23:52:42.548Z,5.90
2023-01-17T23:57:45.042Z,7.60
